< < Back
Terminal Aerodrome Forecast


Current Version              Previous Versions:   1  2  3  4  5  6  7  8  9  

Terminal Aerodrome Forecast

149
FTUS42 KFFC 251738
TAFMCN
TAF
KMCN 251738Z 2518/2618 05005KT P6SM SCT060
     FM252000 06006KT P6SM SCT050 SCT250
     FM260100 08004KT P6SM SCT250
     FM261500 05005KT P6SM SCT045=



Latest METAR

117
SAUS80 KWBC 261000 RRA
MTRMCN
METAR KMCN 260953Z AUTO 00000KT 10SM CLR 21/19 A3009 RMK AO2 SLP184
T02060189 TSNO


USA.gov is the U.S. government's official web portal to all federal, state and local government web resources and services.